Impacts TAF Board INFO
FOR SITUATIONAL AWARENESS. NOT TO BE USED FOR FLIGHT PLANNING PURPOSES.
IDs:

KEWR - Newark Intl, NJ, US

Issued at 1431 UTC 17 Dec 2017
Updated at 1551 UTC 17 Dec 2017
Potential Impact None Slight Moderate High
Time1451Z 17/16Z 17/17Z 17/18Z 17/19Z 17/20Z 17/21Z 17/22Z 17/23Z 18/00Z 18/01Z 18/02Z 18/03Z 18/04Z>>
Type OBS PRVL PRVL PRVL PRVL PRVL PRVL PRVL PRVL PRVL PRVL PRVL PRVL PRVL
VIS 10 >6 >6 >6 >6 >6 >6 >6 >6 >6 >6 >6 >6 >6
CIG 50 50 50 50 50 50 150 150 150 150 150 150 150 150
Cover OVC BKN BKN BKN BKN BKN OVC OVC OVC OVC OVC OVC OVC OVC
FltCat VFR VFR VFR VFR VFR VFR VFR VFR VFR VFR VFR VFR VFR VFR
WX -- -- -- -- -- -- -- -- -- -- -- -- -- --
WDir VRB 10 10 10 10 10 30 30 30 30 30 30 30 30
WSpd 0 5 5 5 5 5 4 4 4 4 4 4 4 4
WGst -- -- -- -- -- -- -- -- -- -- -- -- -- --

Raw TAF
KEWR 171431Z 1715/1818 01005KT P6SM BKN050
  FM172100 03004KT P6SM FEW045 OVC150
  FM180500 VRB03KT P6SM SCT025 OVC080
  FM180800 VRB03KT P6SM BKN020
  FM181400 27005KT P6SM SCT020 BKN080


Raw METAR
KEWR 171451Z 00000KT 10SM BKN050 BKN070 OVC100 01/M06 A3031 RMK AO2 SLP262 T00111056 53010
KEWR 171351Z 00000KT 10SM BKN048 BKN070 OVC100 01/M06 A3030 RMK AO2 SLP259 T00111056
KEWR 171251Z 02005KT 10SM BKN048 BKN070 00/M06 A3029 RMK AO2 SLP255 T00001056

METAR Board
Radar Display
Forecast Discussion

FOR SITUATIONAL AWARENESS. NOT TO BE USED FOR FLIGHT PLANNING PURPOSES.